createdAt,value
2022-08-11T00:00:14.458Z,67.50
2022-08-11T00:04:17.487Z,67.60
2022-08-11T00:08:28.032Z,67.71
2022-08-11T00:12:30.083Z,67.94
2022-08-11T00:16:32.817Z,68.13
2022-08-11T00:20:39.722Z,68.33
2022-08-11T00:24:53.932Z,68.53
2022-08-11T00:29:08.892Z,68.63
2022-08-11T00:33:10.535Z,68.83
2022-08-11T00:37:18.910Z,69.06
2022-08-11T00:41:31.244Z,69.16
2022-08-11T00:45:40.199Z,69.46
2022-08-11T00:50:03.449Z,69.76
2022-08-11T00:54:39.298Z,69.96
2022-08-11T00:59:34.258Z,69.96
2022-08-11T01:03:37.846Z,70.06
2022-08-11T01:08:14.826Z,70.25
2022-08-11T01:12:41.096Z,70.48
2022-08-11T01:16:45.404Z,70.68
2022-08-11T01:21:05.439Z,70.68
2022-08-11T01:25:31.335Z,71.08
2022-08-11T01:30:10.279Z,71.08
2022-08-11T01:34:26.934Z,71.08
2022-08-11T01:38:43.913Z,71.51
2022-08-11T01:43:23.036Z,71.72
2022-08-11T01:47:53.489Z,71.91
2022-08-11T01:52:33.673Z,72.11
2022-08-11T01:56:58.140Z,72.21
2022-08-11T02:01:32.349Z,72.31
2022-08-11T02:05:36.975Z,72.61
2022-08-11T02:09:49.826Z,73.60
2022-08-11T02:13:57.162Z,74.50
2022-08-11T02:18:05.139Z,75.53
2022-08-11T02:22:34.634Z,76.26
2022-08-11T02:26:47.160Z,76.60
2022-08-11T02:32:24.114Z,77.20
2022-08-11T02:36:04.919Z,77.83
2022-08-11T02:40:20.946Z,78.41
2022-08-11T02:44:51.194Z,79.24
2022-08-11T02:49:23.873Z,79.97
2022-08-11T02:53:37.727Z,80.32
2022-08-11T02:57:42.094Z,79.75
2022-08-11T03:02:04.929Z,79.55
2022-08-11T03:06:35.600Z,79.96
2022-08-11T03:10:40.429Z,79.99
2022-08-11T03:16:06.167Z,80.09
2022-08-11T03:20:22.976Z,80.39
2022-08-11T03:24:55.528Z,80.59
2022-08-11T03:29:27.359Z,81.39
2022-08-11T03:33:52.342Z,81.73
2022-08-11T03:38:02.561Z,81.73
2022-08-11T03:42:39.467Z,82.09
2022-08-11T03:47:06.818Z,82.63
2022-08-11T03:51:20.202Z,82.83
2022-08-11T03:55:30.598Z,83.03
2022-08-11T03:59:46.456Z,83.67
2022-08-11T04:04:49.897Z,83.81
2022-08-11T04:09:11.241Z,83.81
2022-08-11T04:13:29.922Z,83.91
2022-08-11T04:17:50.469Z,84.01
2022-08-11T04:22:14.151Z,84.05
2022-08-11T04:26:34.318Z,84.55
2022-08-11T04:30:50.441Z,84.75
2022-08-11T04:35:14.131Z,84.85
2022-08-11T04:39:43.486Z,85.05
2022-08-11T04:44:02.657Z,85.25
2022-08-11T04:48:47.972Z,85.75
2022-08-11T04:53:33.884Z,85.85
2022-08-11T04:58:17.617Z,85.80
2022-08-11T05:02:56.994Z,85.60
2022-08-11T05:07:29.296Z,85.85
2022-08-11T05:11:36.749Z,85.69
2022-08-11T05:16:12.993Z,85.39
2022-08-11T05:20:33.345Z,85.15
2022-08-11T05:25:06.134Z,85.46
2022-08-11T05:30:09.701Z,85.66
2022-08-11T05:34:34.498Z,85.66
2022-08-11T05:38:56.423Z,86.05
2022-08-11T05:43:20.219Z,86.35
2022-08-11T05:47:44.428Z,86.76
2022-08-11T05:52:13.019Z,87.26
2022-08-11T05:56:19.497Z,87.26
2022-08-11T06:00:24.176Z,86.91
2022-08-11T06:04:26.287Z,87.02
2022-08-11T06:08:30.889Z,87.02
2022-08-11T06:12:37.399Z,86.87
2022-08-11T06:16:42.414Z,87.48
2022-08-11T06:21:02.524Z,87.77
2022-08-11T06:25:09.034Z,87.23
2022-08-11T06:29:11.635Z,86.63
2022-08-11T06:33:17.994Z,86.83
2022-08-11T06:37:46.774Z,86.89
2022-08-11T06:42:17.023Z,86.69
2022-08-11T06:46:28.729Z,86.49
2022-08-11T06:50:50.524Z,86.25
2022-08-11T06:54:58.015Z,86.05
2022-08-11T06:59:19.709Z,85.41
2022-08-11T07:03:22.373Z,85.51
2022-08-11T07:08:33.252Z,85.67
2022-08-11T07:13:01.646Z,85.27
2022-08-11T07:17:08.661Z,85.13
2022-08-11T07:22:01.757Z,85.19
2022-08-11T07:26:37.722Z,84.89
2022-08-11T07:30:41.563Z,84.35
2022-08-11T07:34:50.053Z,83.71
2022-08-11T07:38:54.569Z,83.11
2022-08-11T07:42:58.865Z,82.48
2022-08-11T07:47:19.213Z,80.74
2022-08-11T07:51:39.449Z,79.15
2022-08-11T07:55:51.770Z,79.01
2022-08-11T08:00:15.860Z,78.08
2022-08-11T08:04:38.258Z,78.78
2022-08-11T08:09:00.033Z,78.44
2022-08-11T08:13:21.565Z,76.95
2022-08-11T08:17:42.881Z,77.61
2022-08-11T08:21:45.638Z,75.48
2022-08-11T08:25:47.714Z,75.25
2022-08-11T08:30:08.070Z,74.46
2022-08-11T08:34:10.703Z,74.12
2022-08-11T08:38:14.366Z,74.48
2022-08-11T08:42:24.965Z,73.79
2022-08-11T08:46:33.419Z,73.46
2022-08-11T08:51:23.474Z,73.16
2022-08-11T08:55:28.686Z,72.23
2022-08-11T08:59:47.655Z,72.30
2022-08-11T09:04:07.155Z,71.70
2022-08-11T09:08:12.718Z,71.17
2022-08-11T09:12:15.502Z,71.57
2022-08-11T09:16:18.555Z,71.23
2022-08-11T09:20:26.247Z,70.94
2022-08-11T09:24:46.598Z,70.51
2022-08-11T09:28:51.775Z,69.78
2022-08-11T09:33:00.382Z,69.98
2022-08-11T09:37:28.392Z,70.25
2022-08-11T09:42:00.707Z,70.25
2022-08-11T09:46:05.506Z,70.44
2022-08-11T09:50:09.529Z,69.71
2022-08-11T09:54:11.984Z,68.63
2022-08-11T09:58:41.633Z,67.71
2022-08-11T10:02:48.554Z,66.33
2022-08-11T10:07:04.687Z,65.80
2022-08-11T10:11:11.215Z,66.46
2022-08-11T10:15:38.131Z,64.88
2022-08-11T10:19:42.067Z,65.08
2022-08-11T10:29:02.449Z,63.77
2022-08-11T10:33:37.677Z,62.98
2022-08-11T10:38:08.720Z,63.73
2022-08-11T10:42:41.749Z,61.87
2022-08-11T10:47:08.676Z,62.16
2022-08-11T10:51:13.155Z,61.54
2022-08-11T10:55:35.289Z,61.24
2022-08-11T10:59:37.143Z,60.85
2022-08-11T11:03:39.509Z,60.72
2022-08-11T11:07:57.767Z,60.55
2022-08-11T11:12:49.136Z,60.23
2022-08-11T11:17:09.449Z,59.84
2022-08-11T11:21:15.825Z,59.81
2022-08-11T11:25:35.467Z,59.51
2022-08-11T11:29:58.905Z,59.39
2022-08-11T11:34:06.868Z,59.48
2022-08-11T11:38:14.587Z,59.55
2022-08-11T11:42:17.245Z,59.45
2022-08-11T11:46:19.127Z,59.55
2022-08-11T11:50:31.804Z,58.84
2022-08-11T11:54:36.770Z,58.34
2022-08-11T11:58:59.017Z,58.54
2022-08-11T12:03:05.027Z,57.92
2022-08-11T12:07:27.185Z,57.63
2022-08-11T12:11:48.990Z,57.53
2022-08-11T12:16:31.954Z,56.72
2022-08-11T12:20:31.842Z,57.11
2022-08-11T12:24:55.181Z,56.72
2022-08-11T12:28:58.530Z,56.40
2022-08-11T12:33:00.524Z,55.32
2022-08-11T12:37:10.775Z,55.10
2022-08-11T12:41:34.469Z,55.26
2022-08-11T12:45:40.358Z,54.58
2022-08-11T12:50:22.639Z,54.48
2022-08-11T12:54:34.393Z,54.38
2022-08-11T12:58:40.465Z,53.86
2022-08-11T13:03:01.047Z,54.25
2022-08-11T13:07:03.162Z,53.45
2022-08-11T13:11:23.985Z,53.74
2022-08-11T13:15:26.379Z,53.06
2022-08-11T13:19:28.725Z,52.54
2022-08-11T13:23:31.402Z,53.00
2022-08-11T13:27:33.729Z,52.69
2022-08-11T13:31:36.124Z,52.59
2022-08-11T13:35:38.611Z,52.29
2022-08-11T13:39:47.164Z,52.10
2022-08-11T13:43:49.348Z,52.00
2022-08-11T13:47:54.961Z,51.98
2022-08-11T13:51:57.208Z,52.05
2022-08-11T13:56:00.539Z,51.86
2022-08-11T14:00:28.206Z,51.76
2022-08-11T14:04:43.421Z,51.92
2022-08-11T14:08:47.373Z,51.14
2022-08-11T14:13:41.635Z,51.53
2022-08-11T14:17:48.645Z,51.51
2022-08-11T14:22:08.430Z,50.92
2022-08-11T14:26:29.140Z,50.82
2022-08-11T14:30:49.217Z,50.70
2022-08-11T14:34:51.419Z,49.93
2022-08-11T14:38:54.635Z,50.60
2022-08-11T14:43:14.940Z,50.78
2022-08-11T14:47:23.331Z,50.68
2022-08-11T14:51:27.633Z,50.87
2022-08-11T14:55:50.821Z,50.75
2022-08-11T14:59:54.046Z,50.16
2022-08-11T15:04:01.216Z,50.36
2022-08-11T15:08:41.449Z,50.46
2022-08-11T15:12:43.454Z,50.19
2022-08-11T15:17:04.542Z,50.19
2022-08-11T15:21:24.916Z,50.46
2022-08-11T15:25:28.466Z,50.95
2022-08-11T15:29:51.182Z,51.14
2022-08-11T15:34:14.106Z,50.16
2022-08-11T15:38:20.154Z,50.48
2022-08-11T15:42:53.895Z,50.68
2022-08-11T15:47:01.523Z,50.46
2022-08-11T15:51:11.022Z,50.87
2022-08-11T15:55:13.123Z,49.29
2022-08-11T15:59:42.423Z,49.58
2022-08-11T16:04:12.663Z,50.38
2022-08-11T16:08:16.862Z,49.97
2022-08-11T16:12:35.340Z,49.97
2022-08-11T16:16:39.108Z,49.41
2022-08-11T16:20:41.072Z,49.61
2022-08-11T16:27:03.322Z,49.83
2022-08-11T16:29:08.755Z,49.63
2022-08-11T16:33:48.070Z,49.61
2022-08-11T16:37:55.765Z,50.29
2022-08-11T16:43:05.202Z,50.46
2022-08-11T16:46:57.320Z,50.85
2022-08-11T16:51:00.878Z,51.36
2022-08-11T16:55:03.875Z,50.80
2022-08-11T16:59:15.960Z,51.43
2022-08-11T17:03:38.653Z,50.95
2022-08-11T17:08:02.412Z,51.46
2022-08-11T17:12:24.904Z,51.10
2022-08-11T17:16:32.728Z,51.03
2022-08-11T17:20:42.730Z,51.34
2022-08-11T17:24:47.963Z,51.64
2022-08-11T17:28:58.024Z,52.15
2022-08-11T17:33:18.277Z,52.54
2022-08-11T17:37:21.782Z,52.96
2022-08-11T17:41:42.298Z,53.38
2022-08-11T17:46:04.740Z,53.69
2022-08-11T17:50:17.684Z,53.50
2022-08-11T17:54:40.381Z,53.43
2022-08-11T17:59:03.221Z,54.04
2022-08-11T18:03:24.620Z,53.85
2022-08-11T18:07:44.835Z,54.36
2022-08-11T18:12:11.906Z,55.05
2022-08-11T18:16:33.190Z,55.08
2022-08-11T18:20:54.992Z,55.96
2022-08-11T18:25:35.951Z,56.97
2022-08-11T18:29:59.614Z,58.05
2022-08-11T18:34:33.018Z,57.68
2022-08-11T18:38:55.692Z,58.20
2022-08-11T18:43:18.791Z,58.70
2022-08-11T18:47:41.896Z,59.71
2022-08-11T18:52:12.838Z,60.39
2022-08-11T18:56:35.395Z,59.64
2022-08-11T19:00:56.875Z,59.05
2022-08-11T19:05:17.630Z,59.86
2022-08-11T19:09:38.349Z,59.47
2022-08-11T19:14:01.054Z,59.47
2022-08-11T19:18:21.873Z,60.39
2022-08-11T19:22:43.792Z,60.78
2022-08-11T19:27:04.620Z,60.91
2022-08-11T19:31:26.504Z,61.69
2022-08-11T19:35:47.164Z,62.32
2022-08-11T19:40:08.131Z,62.52
2022-08-11T19:44:31.109Z,63.11
2022-08-11T19:48:52.604Z,63.73
2022-08-11T19:53:17.027Z,63.53
2022-08-11T19:57:41.121Z,64.52
2022-08-11T20:02:13.409Z,64.65
2022-08-11T20:06:35.886Z,65.64
2022-08-11T20:10:56.665Z,65.73
2022-08-11T20:15:17.994Z,66.46
2022-08-11T20:19:56.394Z,66.56
2022-08-11T20:24:19.636Z,67.18
2022-08-11T20:28:40.041Z,67.48
2022-08-11T20:33:01.746Z,67.97
2022-08-11T20:37:23.558Z,69.19
2022-08-11T20:41:58.907Z,71.47
2022-08-11T20:46:21.005Z,73.38
2022-08-11T20:50:46.007Z,72.98
2022-08-11T20:55:10.544Z,72.52
2022-08-11T20:59:50.623Z,73.11
2022-08-11T21:04:16.477Z,73.94
2022-08-11T21:08:46.032Z,74.54
2022-08-11T21:13:25.824Z,75.23
2022-08-11T21:18:00.621Z,75.96
2022-08-11T21:22:32.577Z,76.56
2022-08-11T21:26:58.275Z,76.89
2022-08-11T21:31:24.606Z,77.28
2022-08-11T21:35:45.317Z,77.48
2022-08-11T21:40:08.221Z,77.58
2022-08-11T21:44:29.220Z,77.72
2022-08-11T21:48:50.406Z,77.32
2022-08-11T21:53:10.772Z,76.57
2022-08-11T21:57:33.332Z,76.57
2022-08-11T22:01:54.205Z,77.20
2022-08-11T22:06:14.816Z,77.40
2022-08-11T22:10:40.865Z,77.40
2022-08-11T22:15:03.197Z,77.63
2022-08-11T22:19:24.006Z,77.73
2022-08-11T22:23:44.687Z,77.23
2022-08-11T22:28:05.584Z,77.08
2022-08-11T22:32:29.273Z,77.57
2022-08-11T22:36:51.951Z,77.37
2022-08-11T22:41:12.613Z,77.08
2022-08-11T22:45:32.509Z,76.61
2022-08-11T22:49:57.144Z,77.31
2022-08-11T22:54:22.583Z,76.81
2022-08-11T22:58:43.392Z,81.12
2022-08-11T23:03:04.365Z,81.76
2022-08-11T23:07:50.999Z,80.57
2022-08-11T23:12:07.051Z,79.77
2022-08-11T23:16:30.716Z,79.53
2022-08-11T23:20:54.696Z,79.73
2022-08-11T23:25:17.815Z,80.03
2022-08-11T23:29:39.014Z,80.23
2022-08-11T23:34:01.114Z,80.27
2022-08-11T23:38:21.134Z,80.36
2022-08-11T23:42:41.831Z,80.87
2022-08-11T23:47:09.721Z,81.50
2022-08-11T23:51:38.687Z,81.70
2022-08-11T23:56:01.956Z,82.14
